createdAt,value
2022-10-05T00:00:13.450Z,92.60
2022-10-05T00:02:42.895Z,93.00
2022-10-05T00:05:21.962Z,92.68
2022-10-05T00:07:49.686Z,95.92
2022-10-05T00:10:20.226Z,94.21
2022-10-05T00:12:48.951Z,91.51
2022-10-05T00:15:19.590Z,90.58
2022-10-05T00:17:48.894Z,92.74
2022-10-05T00:20:20.952Z,94.07
2022-10-05T00:22:49.494Z,91.30
2022-10-05T00:25:21.513Z,91.87
2022-10-05T00:27:55.125Z,90.47
2022-10-05T00:30:23.769Z,89.84
2022-10-05T00:32:58.639Z,90.01
2022-10-05T00:35:29.154Z,89.81
2022-10-05T00:37:57.250Z,89.99
2022-10-05T00:40:37.079Z,89.73
2022-10-05T00:43:25.147Z,89.09
2022-10-05T00:45:57.623Z,90.75
2022-10-05T00:48:37.059Z,90.83
2022-10-05T00:51:20.706Z,91.64
2022-10-05T00:53:58.157Z,92.34
2022-10-05T00:56:56.647Z,92.98
2022-10-05T00:59:37.908Z,92.27
2022-10-05T01:02:13.361Z,93.89
2022-10-05T01:04:49.271Z,95.29
2022-10-05T01:07:29.740Z,97.08
2022-10-05T01:10:04.764Z,97.27
2022-10-05T01:12:41.659Z,97.43
2022-10-05T01:15:14.758Z,98.63
2022-10-05T01:17:47.906Z,99.18
2022-10-05T01:20:31.569Z,99.07
2022-10-05T01:23:24.158Z,100.00
2022-10-05T01:26:06.134Z,100.00
2022-10-05T01:28:38.442Z,100.00
2022-10-05T01:31:10.755Z,100.00
2022-10-05T01:33:44.467Z,100.00
2022-10-05T01:36:24.538Z,100.00
2022-10-05T01:39:00.626Z,100.00
2022-10-05T01:41:37.138Z,100.00
2022-10-05T01:44:12.653Z,100.00
2022-10-05T01:46:45.101Z,100.00
2022-10-05T01:49:34.578Z,100.00
2022-10-05T01:52:16.424Z,100.00
2022-10-05T01:54:55.119Z,100.00
2022-10-05T01:57:34.915Z,99.47
2022-10-05T02:00:09.853Z,99.77
2022-10-05T02:02:40.503Z,100.00
2022-10-05T02:05:14.993Z,100.00
2022-10-05T02:07:49.050Z,100.00
2022-10-05T02:10:24.032Z,100.00
2022-10-05T02:12:58.457Z,99.98
2022-10-05T02:15:34.680Z,99.95
2022-10-05T02:18:09.563Z,100.00
2022-10-05T02:20:41.577Z,99.33
2022-10-05T02:23:13.582Z,100.00
2022-10-05T02:25:46.047Z,100.00
2022-10-05T02:28:17.678Z,100.00
2022-10-05T02:30:52.706Z,100.00
2022-10-05T02:33:28.533Z,100.00
2022-10-05T02:36:01.250Z,100.00
2022-10-05T02:38:37.866Z,99.53
2022-10-05T02:41:13.491Z,99.63
2022-10-05T02:43:49.506Z,99.20
2022-10-05T02:46:29.819Z,98.08
2022-10-05T02:49:10.040Z,98.34
2022-10-05T02:51:47.443Z,98.27
2022-10-05T02:54:25.144Z,98.18
2022-10-05T02:57:01.184Z,97.57
2022-10-05T02:59:36.009Z,97.92
2022-10-05T03:02:13.958Z,97.69
2022-10-05T03:04:49.795Z,97.12
2022-10-05T03:07:24.216Z,98.36
2022-10-05T03:10:01.808Z,97.93
2022-10-05T03:12:43.973Z,98.27
2022-10-05T03:15:21.321Z,98.13
2022-10-05T03:18:00.603Z,97.58
2022-10-05T03:20:39.750Z,98.95
2022-10-05T03:23:16.053Z,98.60
2022-10-05T03:25:58.182Z,99.10
2022-10-05T03:28:31.395Z,98.42
2022-10-05T03:31:02.022Z,99.71
2022-10-05T03:33:40.818Z,100.00
2022-10-05T03:36:17.443Z,99.49
2022-10-05T03:38:51.175Z,99.88
2022-10-05T03:41:24.722Z,98.37
2022-10-05T03:44:30.070Z,98.81
2022-10-05T03:47:08.837Z,98.05
2022-10-05T03:49:49.018Z,98.31
2022-10-05T03:52:23.180Z,98.79
2022-10-05T03:54:57.191Z,97.75
2022-10-05T03:57:27.810Z,98.70
2022-10-05T04:00:01.579Z,98.28
2022-10-05T04:02:33.937Z,96.91
2022-10-05T04:05:06.812Z,97.23
2022-10-05T04:07:43.745Z,97.82
2022-10-05T04:10:17.334Z,97.49
2022-10-05T04:12:48.966Z,97.83
2022-10-05T04:15:22.759Z,97.94
2022-10-05T04:17:55.647Z,98.12
2022-10-05T04:20:30.030Z,98.76
2022-10-05T04:23:03.902Z,99.24
2022-10-05T04:25:36.230Z,97.48
2022-10-05T04:28:12.481Z,97.44
2022-10-05T04:30:45.906Z,97.48
2022-10-05T04:33:15.882Z,96.54
2022-10-05T04:35:57.250Z,96.80
2022-10-05T04:38:35.564Z,98.39
2022-10-05T04:41:17.605Z,97.69
2022-10-05T04:43:59.638Z,96.98
2022-10-05T04:46:40.103Z,97.13
2022-10-05T04:49:44.170Z,96.21
2022-10-05T04:52:16.046Z,96.04
2022-10-05T04:54:54.814Z,95.54
2022-10-05T04:57:29.994Z,95.50
2022-10-05T05:00:10.195Z,95.25
2022-10-05T05:02:52.839Z,95.67
2022-10-05T05:05:32.661Z,95.78
2022-10-05T05:08:14.554Z,95.59
2022-10-05T05:11:02.198Z,95.03
2022-10-05T05:14:05.237Z,94.84
2022-10-05T05:16:39.542Z,95.90
2022-10-05T05:19:19.403Z,95.41
2022-10-05T05:21:56.164Z,95.78
2022-10-05T05:24:39.610Z,95.87
2022-10-05T05:27:25.673Z,95.54
2022-10-05T05:30:02.748Z,95.67
2022-10-05T05:32:41.383Z,95.83
2022-10-05T05:35:33.042Z,95.68
2022-10-05T05:38:10.309Z,97.05
2022-10-05T05:40:49.393Z,96.98
2022-10-05T05:43:25.379Z,97.27
2022-10-05T05:46:00.378Z,96.75
2022-10-05T05:48:37.278Z,96.40
2022-10-05T05:51:10.238Z,96.63
2022-10-05T05:53:42.375Z,97.22
2022-10-05T05:56:14.313Z,98.50
2022-10-05T05:58:48.062Z,99.25
2022-10-05T06:01:32.729Z,98.15
2022-10-05T06:04:05.006Z,96.86
2022-10-05T06:06:37.074Z,97.51
2022-10-05T06:09:14.316Z,97.76
2022-10-05T06:11:49.090Z,97.20
2022-10-05T06:14:23.541Z,97.91
2022-10-05T06:16:57.622Z,96.67
2022-10-05T06:19:28.199Z,96.44
2022-10-05T06:22:01.647Z,95.60
2022-10-05T06:24:36.646Z,97.49
2022-10-05T06:27:22.341Z,96.88
2022-10-05T06:30:03.838Z,95.94
2022-10-05T06:32:35.002Z,96.65
2022-10-05T06:35:13.349Z,96.87
2022-10-05T06:38:03.995Z,97.64
2022-10-05T06:40:45.089Z,98.18
2022-10-05T06:43:31.743Z,98.94
2022-10-05T06:46:08.016Z,96.95
2022-10-05T06:48:47.973Z,97.74
2022-10-05T06:51:26.585Z,96.58
2022-10-05T06:54:04.607Z,96.08
2022-10-05T06:56:35.840Z,97.13
2022-10-05T06:59:12.490Z,99.95
2022-10-05T07:01:51.854Z,98.48
2022-10-05T07:04:42.788Z,99.14
2022-10-05T07:07:20.560Z,98.67
2022-10-05T07:09:59.711Z,98.76
2022-10-05T07:12:44.994Z,98.86
2022-10-05T07:15:36.830Z,100.00
2022-10-05T07:18:33.849Z,100.00
2022-10-05T07:21:10.738Z,100.00
2022-10-05T07:23:53.838Z,100.00
2022-10-05T07:26:27.860Z,100.00
2022-10-05T07:29:20.807Z,100.00
2022-10-05T07:32:04.208Z,100.00
2022-10-05T07:34:42.510Z,100.00
2022-10-05T07:37:31.527Z,99.80
2022-10-05T07:40:09.797Z,100.00
2022-10-05T07:42:51.863Z,99.47
2022-10-05T07:45:28.840Z,100.00
2022-10-05T07:48:00.218Z,99.17
2022-10-05T07:50:34.857Z,100.00
2022-10-05T07:53:12.039Z,100.00
2022-10-05T07:55:44.816Z,100.00
2022-10-05T07:58:22.007Z,100.00
2022-10-05T08:01:03.565Z,100.00
2022-10-05T08:03:41.715Z,100.00
2022-10-05T08:06:13.950Z,100.00
2022-10-05T08:08:49.465Z,100.00
2022-10-05T08:11:20.392Z,100.00
2022-10-05T08:13:55.589Z,100.00
2022-10-05T08:16:27.595Z,100.00
2022-10-05T08:19:00.238Z,100.00
2022-10-05T08:21:34.206Z,100.00
2022-10-05T08:24:16.342Z,100.00
2022-10-05T08:26:52.167Z,100.00
2022-10-05T08:29:26.118Z,100.00
2022-10-05T08:31:59.225Z,100.00
2022-10-05T08:34:36.073Z,100.00
2022-10-05T08:37:08.896Z,100.00
2022-10-05T08:39:40.795Z,100.00
2022-10-05T08:42:44.486Z,100.00
2022-10-05T08:45:31.806Z,95.79
2022-10-05T08:48:29.197Z,96.27
2022-10-05T08:51:36.051Z,91.51
2022-10-05T08:54:29.931Z,88.65
2022-10-05T08:57:17.862Z,84.62
2022-10-05T09:00:04.405Z,83.97
2022-10-05T09:02:50.645Z,82.73
2022-10-05T09:05:51.612Z,79.97
2022-10-05T09:08:51.242Z,81.12
2022-10-05T09:11:26.095Z,80.68
2022-10-05T09:14:17.952Z,80.12
2022-10-05T09:16:52.337Z,81.74
2022-10-05T09:19:51.978Z,81.14
2022-10-05T09:22:37.922Z,79.39
2022-10-05T09:25:19.407Z,78.67
2022-10-05T09:27:55.801Z,79.80
2022-10-05T09:30:28.039Z,80.92
2022-10-05T09:33:26.017Z,80.12
2022-10-05T09:36:20.576Z,81.41
2022-10-05T09:39:35.814Z,80.78
2022-10-05T09:42:25.377Z,80.29
2022-10-05T09:45:24.667Z,82.21
2022-10-05T09:48:43.709Z,82.62
2022-10-05T09:51:32.699Z,82.64
2022-10-05T09:54:32.503Z,80.03
2022-10-05T09:57:26.405Z,80.11
2022-10-05T10:00:09.679Z,79.64
2022-10-05T10:02:55.242Z,77.83
2022-10-05T10:05:45.569Z,78.49
2022-10-05T10:08:26.234Z,77.54
2022-10-05T10:11:23.802Z,78.87
2022-10-05T10:14:33.927Z,79.44
2022-10-05T10:17:32.527Z,80.83
2022-10-05T10:20:20.306Z,80.38
2022-10-05T10:23:16.605Z,79.26
2022-10-05T10:26:06.275Z,79.18
2022-10-05T10:29:02.415Z,80.58
2022-10-05T10:32:01.627Z,79.98
2022-10-05T10:34:56.497Z,79.05
2022-10-05T10:37:59.931Z,78.07
2022-10-05T10:40:39.536Z,76.80
2022-10-05T10:43:30.894Z,76.04
2022-10-05T10:46:08.269Z,76.34
2022-10-05T10:48:51.238Z,74.85
2022-10-05T10:51:39.487Z,74.75
2022-10-05T10:54:36.503Z,73.88
2022-10-05T10:57:09.281Z,72.37
2022-10-05T11:00:06.363Z,72.45
2022-10-05T11:03:24.919Z,72.32
2022-10-05T11:06:12.154Z,72.50
2022-10-05T11:09:09.320Z,72.38
2022-10-05T11:12:12.287Z,74.23
2022-10-05T11:15:14.005Z,75.21
2022-10-05T11:17:59.095Z,74.81
2022-10-05T11:20:51.954Z,75.73
2022-10-05T11:23:55.940Z,73.80
2022-10-05T11:26:42.457Z,74.09
2022-10-05T11:29:33.378Z,74.72
2022-10-05T11:32:39.652Z,73.53
2022-10-05T11:35:40.390Z,74.28
2022-10-05T11:38:22.860Z,74.51
2022-10-05T11:41:10.757Z,76.22
2022-10-05T11:44:03.272Z,76.18
2022-10-05T11:46:42.169Z,78.62
2022-10-05T11:49:23.211Z,77.21
2022-10-05T11:52:02.102Z,76.80
2022-10-05T11:55:11.377Z,76.21
2022-10-05T11:57:48.374Z,77.56
2022-10-05T12:00:20.845Z,76.10
2022-10-05T12:03:01.281Z,78.12
2022-10-05T12:05:38.426Z,77.76
2022-10-05T12:08:22.675Z,76.24
2022-10-05T12:11:03.557Z,77.13
2022-10-05T12:13:41.468Z,75.84
2022-10-05T12:16:17.638Z,76.91
2022-10-05T12:18:51.648Z,77.32
2022-10-05T12:21:29.518Z,76.05
2022-10-05T12:24:01.383Z,75.18
2022-10-05T12:26:35.442Z,75.50
2022-10-05T12:29:09.525Z,75.84
2022-10-05T12:31:47.041Z,75.24
2022-10-05T12:34:28.555Z,75.80
2022-10-05T12:37:05.159Z,76.22
2022-10-05T12:39:41.194Z,78.46
2022-10-05T12:42:25.929Z,78.27
2022-10-05T12:45:09.422Z,79.19
2022-10-05T12:47:54.901Z,79.72
2022-10-05T12:50:28.630Z,81.86
2022-10-05T12:53:15.772Z,81.56
2022-10-05T12:55:50.308Z,81.55
2022-10-05T12:58:29.030Z,82.79
2022-10-05T13:01:05.035Z,82.54
2022-10-05T13:03:40.244Z,82.34
2022-10-05T13:06:18.605Z,85.26
2022-10-05T13:08:53.019Z,85.65
2022-10-05T13:11:29.621Z,84.77
2022-10-05T13:14:11.109Z,85.95
2022-10-05T13:16:45.717Z,85.80
2022-10-05T13:19:27.034Z,86.16
2022-10-05T13:22:26.506Z,83.77
2022-10-05T13:25:04.473Z,85.38
2022-10-05T13:27:36.385Z,88.13
2022-10-05T13:30:13.172Z,88.81
2022-10-05T13:32:46.440Z,93.88
2022-10-05T13:35:35.772Z,95.41
2022-10-05T13:38:12.325Z,100.00
2022-10-05T13:40:47.061Z,100.00
2022-10-05T13:43:23.992Z,100.00
2022-10-05T13:45:57.015Z,100.00
2022-10-05T13:48:47.272Z,100.00
2022-10-05T13:51:23.332Z,100.00
2022-10-05T13:53:57.259Z,100.00
2022-10-05T13:56:30.972Z,100.00
2022-10-05T13:59:12.434Z,100.00
2022-10-05T14:01:44.994Z,100.00
2022-10-05T14:04:19.055Z,100.00
2022-10-05T14:06:49.526Z,100.00
2022-10-05T14:09:30.104Z,100.00
2022-10-05T14:12:15.125Z,100.00
2022-10-05T14:14:49.188Z,100.00
2022-10-05T14:17:18.967Z,100.00
2022-10-05T14:19:51.058Z,100.00
2022-10-05T14:22:23.521Z,100.00
2022-10-05T14:24:55.435Z,100.00
2022-10-05T14:27:25.575Z,100.00
2022-10-05T14:29:59.714Z,100.00
2022-10-05T14:32:31.113Z,100.00
2022-10-05T14:35:13.732Z,100.00
2022-10-05T14:37:51.321Z,100.00
2022-10-05T14:40:33.788Z,100.00
2022-10-05T14:43:18.373Z,100.00
2022-10-05T14:45:57.166Z,100.00
2022-10-05T14:48:27.973Z,100.00
2022-10-05T14:50:57.754Z,100.00
2022-10-05T14:53:39.168Z,100.00
2022-10-05T14:56:32.207Z,100.00
2022-10-05T14:59:24.354Z,100.00
2022-10-05T15:01:57.485Z,100.00
2022-10-05T15:04:33.901Z,100.00
2022-10-05T15:07:14.516Z,100.00
2022-10-05T15:10:02.586Z,100.00
2022-10-05T15:12:33.520Z,100.00
2022-10-05T15:15:05.736Z,100.00
2022-10-05T15:17:40.476Z,100.00
2022-10-05T15:20:19.912Z,100.00
2022-10-05T15:22:53.870Z,100.00
2022-10-05T15:25:30.447Z,100.00
2022-10-05T15:28:10.267Z,100.00
2022-10-05T15:30:42.593Z,100.00
2022-10-05T15:33:19.223Z,100.00
2022-10-05T15:36:00.475Z,100.00
2022-10-05T15:38:31.957Z,100.00
2022-10-05T15:41:11.176Z,100.00
2022-10-05T15:43:51.152Z,100.00
2022-10-05T15:46:25.916Z,100.00
2022-10-05T15:49:05.635Z,100.00
2022-10-05T15:51:50.739Z,100.00
2022-10-05T15:54:43.392Z,100.00
2022-10-05T15:57:22.734Z,100.00
2022-10-05T16:00:01.838Z,100.00
2022-10-05T16:02:39.935Z,100.00
2022-10-05T16:05:47.640Z,100.00
2022-10-05T16:08:47.685Z,100.00
2022-10-05T16:11:26.953Z,100.00
2022-10-05T16:14:02.475Z,100.00
2022-10-05T16:16:42.694Z,100.00
2022-10-05T16:19:20.158Z,100.00
2022-10-05T16:21:57.890Z,100.00
2022-10-05T16:24:51.601Z,100.00
2022-10-05T16:27:31.041Z,100.00
2022-10-05T16:30:03.982Z,100.00
2022-10-05T16:32:38.325Z,100.00
2022-10-05T16:35:18.170Z,100.00
2022-10-05T16:37:53.990Z,100.00
2022-10-05T16:40:32.135Z,100.00
2022-10-05T16:43:10.653Z,100.00
2022-10-05T16:45:51.768Z,100.00
2022-10-05T16:48:26.570Z,100.00
2022-10-05T16:51:17.717Z,100.00
2022-10-05T16:53:51.845Z,100.00
2022-10-05T16:56:25.111Z,100.00
2022-10-05T16:58:59.205Z,100.00
2022-10-05T17:01:43.839Z,100.00
2022-10-05T17:04:34.258Z,100.00
2022-10-05T17:07:22.509Z,100.00
2022-10-05T17:10:41.057Z,100.00
2022-10-05T17:13:30.061Z,100.00
2022-10-05T17:16:06.903Z,100.00
2022-10-05T17:19:05.942Z,100.00
2022-10-05T17:21:39.221Z,100.00
2022-10-05T17:24:19.760Z,100.00
2022-10-05T17:27:03.069Z,100.00
2022-10-05T17:29:47.535Z,100.00
2022-10-05T17:32:36.042Z,100.00
2022-10-05T17:35:18.931Z,100.00
2022-10-05T17:38:14.494Z,100.00
2022-10-05T17:40:58.532Z,100.00
2022-10-05T17:43:30.676Z,100.00
2022-10-05T17:46:00.637Z,100.00
2022-10-05T17:48:41.536Z,100.00
2022-10-05T17:51:36.567Z,100.00
2022-10-05T17:54:41.134Z,100.00
2022-10-05T17:57:20.284Z,100.00
2022-10-05T17:59:58.655Z,100.00
2022-10-05T18:02:42.683Z,100.00
2022-10-05T18:05:31.719Z,100.00
2022-10-05T18:08:31.837Z,100.00
2022-10-05T18:11:17.164Z,100.00
2022-10-05T18:13:49.935Z,100.00
2022-10-05T18:16:50.995Z,100.00
2022-10-05T18:19:22.977Z,100.00
2022-10-05T18:22:10.858Z,100.00
2022-10-05T18:25:03.860Z,100.00
2022-10-05T18:28:05.343Z,100.00
2022-10-05T18:30:41.590Z,100.00
2022-10-05T18:33:43.925Z,100.00
2022-10-05T18:36:48.846Z,100.00
2022-10-05T18:39:34.360Z,100.00
2022-10-05T18:42:13.720Z,100.00
2022-10-05T18:44:46.261Z,100.00
2022-10-05T18:47:20.697Z,100.00
2022-10-05T18:50:08.198Z,100.00
2022-10-05T18:52:49.275Z,100.00
2022-10-05T18:55:24.522Z,100.00
2022-10-05T18:58:08.259Z,100.00
2022-10-05T19:01:01.131Z,100.00
2022-10-05T19:03:36.470Z,100.00
2022-10-05T19:06:14.940Z,100.00
2022-10-05T19:08:52.794Z,100.00
2022-10-05T19:11:29.910Z,100.00
2022-10-05T19:14:05.915Z,100.00
2022-10-05T19:17:03.044Z,100.00
2022-10-05T19:19:51.848Z,100.00
2022-10-05T19:22:32.886Z,100.00
2022-10-05T19:25:15.160Z,100.00
2022-10-05T19:27:57.526Z,100.00
2022-10-05T19:30:30.021Z,100.00
2022-10-05T19:33:17.467Z,100.00
2022-10-05T19:35:58.290Z,100.00
2022-10-05T19:38:33.358Z,100.00
2022-10-05T19:41:12.994Z,100.00
2022-10-05T19:43:55.390Z,100.00
2022-10-05T19:46:34.951Z,100.00
2022-10-05T19:49:02.723Z,100.00
2022-10-05T19:51:32.631Z,100.00
2022-10-05T19:54:03.854Z,100.00
2022-10-05T19:56:34.563Z,100.00
2022-10-05T19:59:13.167Z,100.00
2022-10-05T20:01:50.632Z,100.00
2022-10-05T20:04:34.026Z,100.00
2022-10-05T20:07:02.916Z,100.00
2022-10-05T20:09:50.144Z,100.00
2022-10-05T20:12:17.844Z,100.00
2022-10-05T20:15:05.823Z,100.00
2022-10-05T20:17:52.222Z,100.00
2022-10-05T20:20:26.294Z,100.00
2022-10-05T20:22:53.961Z,100.00
2022-10-05T20:25:32.557Z,100.00
2022-10-05T20:27:59.492Z,100.00
2022-10-05T20:30:28.860Z,100.00
2022-10-05T20:33:00.549Z,100.00
2022-10-05T20:35:30.623Z,100.00
2022-10-05T20:38:00.315Z,100.00
2022-10-05T20:40:29.050Z,100.00
2022-10-05T20:42:57.228Z,100.00
2022-10-05T20:45:25.123Z,100.00
2022-10-05T20:47:52.809Z,100.00
2022-10-05T20:50:22.221Z,100.00
2022-10-05T20:52:49.989Z,100.00
2022-10-05T20:55:17.882Z,100.00
2022-10-05T20:57:46.109Z,100.00
2022-10-05T21:00:14.805Z,100.00
2022-10-05T21:02:42.484Z,100.00
2022-10-05T21:05:10.537Z,100.00
2022-10-05T21:07:40.896Z,100.00
2022-10-05T21:10:09.586Z,100.00
2022-10-05T21:12:37.299Z,100.00
2022-10-05T21:15:06.026Z,100.00
2022-10-05T21:17:35.146Z,100.00
2022-10-05T21:20:03.147Z,100.00
2022-10-05T21:22:30.868Z,100.00
2022-10-05T21:24:59.906Z,100.00
2022-10-05T21:27:27.566Z,100.00
2022-10-05T21:29:55.255Z,100.00
2022-10-05T21:32:22.909Z,100.00
2022-10-05T21:34:50.629Z,100.00
2022-10-05T21:37:19.792Z,100.00
2022-10-05T21:39:47.516Z,100.00
2022-10-05T21:42:16.546Z,100.00
2022-10-05T21:44:44.261Z,100.00
2022-10-05T21:47:12.278Z,100.00
2022-10-05T21:49:40.134Z,100.00
2022-10-05T21:52:08.050Z,100.00
2022-10-05T21:54:36.049Z,100.00
2022-10-05T21:57:03.965Z,100.00
2022-10-05T21:59:35.290Z,100.00
2022-10-05T22:02:03.449Z,100.00
2022-10-05T22:04:31.186Z,100.00
2022-10-05T22:06:59.217Z,100.00
2022-10-05T22:09:26.978Z,100.00
2022-10-05T22:11:54.871Z,100.00
2022-10-05T22:14:22.662Z,100.00
2022-10-05T22:16:53.273Z,100.00
2022-10-05T22:19:21.610Z,100.00
2022-10-05T22:21:49.323Z,100.00
2022-10-05T22:24:17.029Z,100.00
2022-10-05T22:26:47.339Z,100.00
2022-10-05T22:29:16.907Z,100.00
2022-10-05T22:31:46.157Z,100.00
2022-10-05T22:34:15.853Z,100.00
2022-10-05T22:36:43.551Z,100.00
2022-10-05T22:39:11.401Z,100.00
2022-10-05T22:41:39.057Z,100.00
2022-10-05T22:44:07.193Z,100.00
2022-10-05T22:46:35.222Z,100.00
2022-10-05T22:49:03.311Z,100.00
2022-10-05T22:51:32.433Z,100.00
2022-10-05T22:54:00.184Z,100.00
2022-10-05T22:56:28.496Z,100.00
2022-10-05T22:58:56.263Z,100.00
2022-10-05T23:01:24.000Z,100.00
2022-10-05T23:03:51.716Z,100.00
2022-10-05T23:06:21.290Z,100.00
2022-10-05T23:08:50.392Z,100.00
2022-10-05T23:11:19.460Z,100.00
2022-10-05T23:13:47.175Z,100.00
2022-10-05T23:16:16.833Z,100.00
2022-10-05T23:18:45.151Z,100.00
2022-10-05T23:21:12.929Z,100.00
2022-10-05T23:23:42.502Z,100.00
2022-10-05T23:26:12.643Z,100.00
2022-10-05T23:28:42.921Z,100.00
2022-10-05T23:31:10.905Z,100.00
2022-10-05T23:33:38.622Z,100.00
2022-10-05T23:36:08.881Z,100.00
2022-10-05T23:38:37.525Z,100.00
2022-10-05T23:41:06.064Z,100.00
2022-10-05T23:43:35.554Z,100.00
2022-10-05T23:46:04.256Z,100.00
2022-10-05T23:48:32.557Z,100.00
2022-10-05T23:51:01.485Z,100.00
2022-10-05T23:53:29.210Z,100.00
2022-10-05T23:55:57.257Z,100.00
2022-10-05T23:58:25.277Z,100.00
